sensor_id;sensor_type;location;lat;lon;timestamp;temperature;humidity
76263;DHT22;65080;50.908;6.916;2023-09-19T00:00:41;17.60;69.20
76263;DHT22;65080;50.908;6.916;2023-09-19T00:03:10;17.60;69.30
76263;DHT22;65080;50.908;6.916;2023-09-19T00:05:39;17.60;69.20
76263;DHT22;65080;50.908;6.916;2023-09-19T00:08:12;17.50;69.20
76263;DHT22;65080;50.908;6.916;2023-09-19T00:10:42;17.50;69.30
76263;DHT22;65080;50.908;6.916;2023-09-19T00:13:11;17.50;69.30
76263;DHT22;65080;50.908;6.916;2023-09-19T00:15:45;17.50;69.20
76263;DHT22;65080;50.908;6.916;2023-09-19T00:18:17;17.50;69.20
76263;DHT22;65080;50.908;6.916;2023-09-19T00:20:47;17.50;69.20
76263;DHT22;65080;50.908;6.916;2023-09-19T00:23:17;17.50;69.30
76263;DHT22;65080;50.908;6.916;2023-09-19T00:25:46;17.40;69.20
76263;DHT22;65080;50.908;6.916;2023-09-19T00:28:15;17.50;69.30
76263;DHT22;65080;50.908;6.916;2023-09-19T00:30:46;17.40;69.10
76263;DHT22;65080;50.908;6.916;2023-09-19T00:33:17;17.40;69.20
76263;DHT22;65080;50.908;6.916;2023-09-19T00:35:49;17.40;69.10
76263;DHT22;65080;50.908;6.916;2023-09-19T00:38:17;17.40;69.10
76263;DHT22;65080;50.908;6.916;2023-09-19T00:40:49;17.40;69.00
76263;DHT22;65080;50.908;6.916;2023-09-19T00:43:18;17.40;69.00
76263;DHT22;65080;50.908;6.916;2023-09-19T00:45:48;17.40;69.00
76263;DHT22;65080;50.908;6.916;2023-09-19T00:48:19;17.40;69.00
76263;DHT22;65080;50.908;6.916;2023-09-19T00:50:48;17.40;69.10
76263;DHT22;65080;50.908;6.916;2023-09-19T00:53:20;17.40;69.00
76263;DHT22;65080;50.908;6.916;2023-09-19T00:55:51;17.40;69.10
76263;DHT22;65080;50.908;6.916;2023-09-19T00:58:20;17.50;69.00
76263;DHT22;65080;50.908;6.916;2023-09-19T01:00:50;17.50;68.90
76263;DHT22;65080;50.908;6.916;2023-09-19T01:03:20;17.50;68.90
76263;DHT22;65080;50.908;6.916;2023-09-19T01:05:49;17.50;69.60
76263;DHT22;65080;50.908;6.916;2023-09-19T01:08:17;17.50;68.90
76263;DHT22;65080;50.908;6.916;2023-09-19T01:10:52;17.50;68.90
76263;DHT22;65080;50.908;6.916;2023-09-19T01:13:25;17.50;68.80
76263;DHT22;65080;50.908;6.916;2023-09-19T01:16:10;17.60;68.90
76263;DHT22;65080;50.908;6.916;2023-09-19T01:18:47;17.50;68.70
76263;DHT22;65080;50.908;6.916;2023-09-19T01:21:23;17.60;68.80
76263;DHT22;65080;50.908;6.916;2023-09-19T01:24:22;17.60;68.80
76263;DHT22;65080;50.908;6.916;2023-09-19T01:27:14;17.60;68.70
76263;DHT22;65080;50.908;6.916;2023-09-19T01:29:46;17.60;68.60
76263;DHT22;65080;50.908;6.916;2023-09-19T01:32:18;17.60;68.50
76263;DHT22;65080;50.908;6.916;2023-09-19T01:34:54;17.60;68.50
76263;DHT22;65080;50.908;6.916;2023-09-19T01:37:25;17.60;68.50
76263;DHT22;65080;50.908;6.916;2023-09-19T01:39:57;17.60;68.50
76263;DHT22;65080;50.908;6.916;2023-09-19T01:42:39;17.70;68.50
76263;DHT22;65080;50.908;6.916;2023-09-19T01:45:12;17.70;68.40
76263;DHT22;65080;50.908;6.916;2023-09-19T01:47:48;17.60;68.40
76263;DHT22;65080;50.908;6.916;2023-09-19T01:50:23;17.60;68.40
76263;DHT22;65080;50.908;6.916;2023-09-19T01:52:57;17.70;68.40
76263;DHT22;65080;50.908;6.916;2023-09-19T01:55:29;17.70;68.30
76263;DHT22;65080;50.908;6.916;2023-09-19T01:58:03;17.60;68.20
76263;DHT22;65080;50.908;6.916;2023-09-19T02:00:36;17.60;68.20
76263;DHT22;65080;50.908;6.916;2023-09-19T02:03:07;17.60;68.20
76263;DHT22;65080;50.908;6.916;2023-09-19T02:05:37;17.60;68.10
76263;DHT22;65080;50.908;6.916;2023-09-19T02:08:07;17.60;68.40
76263;DHT22;65080;50.908;6.916;2023-09-19T02:10:35;17.60;68.10
76263;DHT22;65080;50.908;6.916;2023-09-19T02:13:04;17.60;68.10
76263;DHT22;65080;50.908;6.916;2023-09-19T02:15:33;17.60;68.00
76263;DHT22;65080;50.908;6.916;2023-09-19T02:18:01;17.60;67.90
76263;DHT22;65080;50.908;6.916;2023-09-19T02:20:32;17.50;67.80
76263;DHT22;65080;50.908;6.916;2023-09-19T02:23:00;17.50;67.80
76263;DHT22;65080;50.908;6.916;2023-09-19T02:25:29;17.50;67.80
76263;DHT22;65080;50.908;6.916;2023-09-19T02:27:58;17.50;67.90
76263;DHT22;65080;50.908;6.916;2023-09-19T02:30:28;17.50;67.80
76263;DHT22;65080;50.908;6.916;2023-09-19T02:32:56;17.50;67.80
76263;DHT22;65080;50.908;6.916;2023-09-19T02:35:25;17.40;67.60
76263;DHT22;65080;50.908;6.916;2023-09-19T02:37:56;17.40;67.70
76263;DHT22;65080;50.908;6.916;2023-09-19T02:40:24;17.30;67.60
76263;DHT22;65080;50.908;6.916;2023-09-19T02:42:55;17.30;67.60
76263;DHT22;65080;50.908;6.916;2023-09-19T02:45:26;17.30;67.70
76263;DHT22;65080;50.908;6.916;2023-09-19T02:47:54;17.30;67.60
76263;DHT22;65080;50.908;6.916;2023-09-19T02:50:22;17.30;67.70
76263;DHT22;65080;50.908;6.916;2023-09-19T02:52:51;17.30;67.60
76263;DHT22;65080;50.908;6.916;2023-09-19T02:55:21;17.20;67.60
76263;DHT22;65080;50.908;6.916;2023-09-19T02:57:51;17.30;67.60
76263;DHT22;65080;50.908;6.916;2023-09-19T03:00:20;17.20;67.40
76263;DHT22;65080;50.908;6.916;2023-09-19T03:02:49;17.20;67.40
76263;DHT22;65080;50.908;6.916;2023-09-19T03:05:19;17.20;67.40
76263;DHT22;65080;50.908;6.916;2023-09-19T03:07:48;17.30;68.20
76263;DHT22;65080;50.908;6.916;2023-09-19T03:10:17;17.20;67.40
76263;DHT22;65080;50.908;6.916;2023-09-19T03:12:47;17.10;67.40
76263;DHT22;65080;50.908;6.916;2023-09-19T03:15:16;17.10;67.40
76263;DHT22;65080;50.908;6.916;2023-09-19T03:17:46;17.20;67.40
76263;DHT22;65080;50.908;6.916;2023-09-19T03:20:16;17.10;67.40
76263;DHT22;65080;50.908;6.916;2023-09-19T03:22:44;17.10;67.40
76263;DHT22;65080;50.908;6.916;2023-09-19T03:25:13;17.00;68.10
76263;DHT22;65080;50.908;6.916;2023-09-19T03:27:42;17.00;67.50
76263;DHT22;65080;50.908;6.916;2023-09-19T03:30:12;17.00;67.60
76263;DHT22;65080;50.908;6.916;2023-09-19T03:32:44;17.00;67.50
76263;DHT22;65080;50.908;6.916;2023-09-19T03:35:14;17.00;67.50
76263;DHT22;65080;50.908;6.916;2023-09-19T03:37:42;17.00;67.40
76263;DHT22;65080;50.908;6.916;2023-09-19T03:40:11;16.90;67.40
76263;DHT22;65080;50.908;6.916;2023-09-19T03:42:40;16.90;67.40
76263;DHT22;65080;50.908;6.916;2023-09-19T03:45:09;17.00;67.50
76263;DHT22;65080;50.908;6.916;2023-09-19T03:47:41;16.90;67.40
76263;DHT22;65080;50.908;6.916;2023-09-19T03:50:10;16.90;67.50
76263;DHT22;65080;50.908;6.916;2023-09-19T03:52:39;16.90;67.60
76263;DHT22;65080;50.908;6.916;2023-09-19T03:55:08;17.00;67.60
76263;DHT22;65080;50.908;6.916;2023-09-19T03:57:37;16.90;67.40
76263;DHT22;65080;50.908;6.916;2023-09-19T04:00:06;16.90;67.50
76263;DHT22;65080;50.908;6.916;2023-09-19T04:02:40;16.90;67.60
76263;DHT22;65080;50.908;6.916;2023-09-19T04:05:09;16.90;67.50
76263;DHT22;65080;50.908;6.916;2023-09-19T04:07:37;16.80;67.40
76263;DHT22;65080;50.908;6.916;2023-09-19T04:10:06;16.80;67.50
76263;DHT22;65080;50.908;6.916;2023-09-19T04:12:35;16.80;67.50
76263;DHT22;65080;50.908;6.916;2023-09-19T04:15:05;16.70;67.60
76263;DHT22;65080;50.908;6.916;2023-09-19T04:17:33;16.70;67.60
76263;DHT22;65080;50.908;6.916;2023-09-19T04:20:04;16.80;67.60
76263;DHT22;65080;50.908;6.916;2023-09-19T04:22:34;16.80;67.60
76263;DHT22;65080;50.908;6.916;2023-09-19T04:25:03;16.80;67.50
76263;DHT22;65080;50.908;6.916;2023-09-19T04:27:33;16.80;67.40
76263;DHT22;65080;50.908;6.916;2023-09-19T04:30:02;16.80;67.40
76263;DHT22;65080;50.908;6.916;2023-09-19T04:32:37;16.80;67.30
76263;DHT22;65080;50.908;6.916;2023-09-19T04:35:09;16.80;67.30
76263;DHT22;65080;50.908;6.916;2023-09-19T04:37:38;16.80;67.40
76263;DHT22;65080;50.908;6.916;2023-09-19T04:40:08;16.70;67.20
76263;DHT22;65080;50.908;6.916;2023-09-19T04:42:40;16.80;67.20
76263;DHT22;65080;50.908;6.916;2023-09-19T04:45:10;16.80;67.20
76263;DHT22;65080;50.908;6.916;2023-09-19T04:47:38;16.80;67.10
76263;DHT22;65080;50.908;6.916;2023-09-19T04:50:09;16.80;67.00
76263;DHT22;65080;50.908;6.916;2023-09-19T04:52:41;16.80;66.80
76263;DHT22;65080;50.908;6.916;2023-09-19T04:55:11;16.80;66.90
76263;DHT22;65080;50.908;6.916;2023-09-19T04:57:44;16.80;66.90
76263;DHT22;65080;50.908;6.916;2023-09-19T05:00:14;16.80;66.70
76263;DHT22;65080;50.908;6.916;2023-09-19T05:02:45;16.80;66.70
76263;DHT22;65080;50.908;6.916;2023-09-19T05:05:15;16.70;66.60
76263;DHT22;65080;50.908;6.916;2023-09-19T05:07:46;16.70;66.60
76263;DHT22;65080;50.908;6.916;2023-09-19T05:10:15;16.60;66.50
76263;DHT22;65080;50.908;6.916;2023-09-19T05:12:46;16.60;66.50
76263;DHT22;65080;50.908;6.916;2023-09-19T05:15:15;16.60;66.50
76263;DHT22;65080;50.908;6.916;2023-09-19T05:17:48;16.60;66.50
76263;DHT22;65080;50.908;6.916;2023-09-19T05:20:22;16.60;66.40
76263;DHT22;65080;50.908;6.916;2023-09-19T05:23:00;16.50;66.40
76263;DHT22;65080;50.908;6.916;2023-09-19T05:25:30;16.50;66.40
76263;DHT22;65080;50.908;6.916;2023-09-19T05:27:59;16.40;66.20
76263;DHT22;65080;50.908;6.916;2023-09-19T05:30:31;16.40;66.30
76263;DHT22;65080;50.908;6.916;2023-09-19T05:32:59;16.40;66.10
76263;DHT22;65080;50.908;6.916;2023-09-19T05:35:30;16.50;66.20
76263;DHT22;65080;50.908;6.916;2023-09-19T05:37:58;16.50;66.10
76263;DHT22;65080;50.908;6.916;2023-09-19T05:40:27;16.40;65.90
76263;DHT22;65080;50.908;6.916;2023-09-19T05:42:55;16.40;66.00
76263;DHT22;65080;50.908;6.916;2023-09-19T05:45:24;16.50;66.10
76263;DHT22;65080;50.908;6.916;2023-09-19T05:47:53;16.50;66.00
76263;DHT22;65080;50.908;6.916;2023-09-19T05:50:23;16.50;65.90
76263;DHT22;65080;50.908;6.916;2023-09-19T05:52:54;16.50;65.80
76263;DHT22;65080;50.908;6.916;2023-09-19T05:55:23;16.50;65.90
76263;DHT22;65080;50.908;6.916;2023-09-19T05:57:52;16.50;65.90
76263;DHT22;65080;50.908;6.916;2023-09-19T06:00:21;16.50;66.00
76263;DHT22;65080;50.908;6.916;2023-09-19T06:02:51;16.50;65.80
76263;DHT22;65080;50.908;6.916;2023-09-19T06:05:20;16.50;65.70
76263;DHT22;65080;50.908;6.916;2023-09-19T06:07:49;16.50;65.70
76263;DHT22;65080;50.908;6.916;2023-09-19T06:10:19;16.50;65.80
76263;DHT22;65080;50.908;6.916;2023-09-19T06:12:51;16.40;65.80
76263;DHT22;65080;50.908;6.916;2023-09-19T06:15:20;16.50;65.90
76263;DHT22;65080;50.908;6.916;2023-09-19T06:17:52;16.50;65.70
76263;DHT22;65080;50.908;6.916;2023-09-19T06:20:23;16.60;65.70
76263;DHT22;65080;50.908;6.916;2023-09-19T06:22:53;16.60;65.60
76263;DHT22;65080;50.908;6.916;2023-09-19T06:25:23;16.60;65.60
76263;DHT22;65080;50.908;6.916;2023-09-19T06:27:52;16.50;65.60
76263;DHT22;65080;50.908;6.916;2023-09-19T06:30:23;16.60;65.70
76263;DHT22;65080;50.908;6.916;2023-09-19T06:32:56;16.60;65.60
76263;DHT22;65080;50.908;6.916;2023-09-19T06:35:25;16.60;65.50
76263;DHT22;65080;50.908;6.916;2023-09-19T06:37:54;16.60;65.50
76263;DHT22;65080;50.908;6.916;2023-09-19T06:40:27;16.60;65.50
76263;DHT22;65080;50.908;6.916;2023-09-19T06:42:58;16.60;65.50
76263;DHT22;65080;50.908;6.916;2023-09-19T06:45:28;16.70;65.50
76263;DHT22;65080;50.908;6.916;2023-09-19T06:47:59;16.80;65.50
76263;DHT22;65080;50.908;6.916;2023-09-19T06:50:29;16.80;65.50
76263;DHT22;65080;50.908;6.916;2023-09-19T06:53:00;16.80;65.40
76263;DHT22;65080;50.908;6.916;2023-09-19T06:55:32;16.90;65.50
76263;DHT22;65080;50.908;6.916;2023-09-19T06:58:05;16.90;65.40
76263;DHT22;65080;50.908;6.916;2023-09-19T07:00:35;16.90;65.40
76263;DHT22;65080;50.908;6.916;2023-09-19T07:03:06;17.00;65.40
76263;DHT22;65080;50.908;6.916;2023-09-19T07:05:40;17.10;65.40
76263;DHT22;65080;50.908;6.916;2023-09-19T07:08:10;17.10;65.30
76263;DHT22;65080;50.908;6.916;2023-09-19T07:10:41;17.10;65.20
76263;DHT22;65080;50.908;6.916;2023-09-19T07:13:12;17.20;65.20
76263;DHT22;65080;50.908;6.916;2023-09-19T07:15:41;17.20;65.30
76263;DHT22;65080;50.908;6.916;2023-09-19T07:18:14;17.20;65.30
76263;DHT22;65080;50.908;6.916;2023-09-19T07:20:44;17.30;65.30
76263;DHT22;65080;50.908;6.916;2023-09-19T07:23:17;17.30;65.30
76263;DHT22;65080;50.908;6.916;2023-09-19T07:25:46;17.30;65.20
76263;DHT22;65080;50.908;6.916;2023-09-19T07:28:16;17.50;65.20
76263;DHT22;65080;50.908;6.916;2023-09-19T07:30:45;17.60;65.20
76263;DHT22;65080;50.908;6.916;2023-09-19T07:33:13;17.70;65.10
76263;DHT22;65080;50.908;6.916;2023-09-19T07:35:45;17.70;65.00
76263;DHT22;65080;50.908;6.916;2023-09-19T07:38:14;17.80;65.00
76263;DHT22;65080;50.908;6.916;2023-09-19T07:40:42;17.80;64.90
76263;DHT22;65080;50.908;6.916;2023-09-19T07:43:12;17.80;64.90
76263;DHT22;65080;50.908;6.916;2023-09-19T07:45:41;17.80;64.90
76263;DHT22;65080;50.908;6.916;2023-09-19T07:48:09;17.90;65.00
76263;DHT22;65080;50.908;6.916;2023-09-19T07:50:42;18.00;65.00
76263;DHT22;65080;50.908;6.916;2023-09-19T07:53:12;18.00;64.80
76263;DHT22;65080;50.908;6.916;2023-09-19T07:55:41;18.10;64.70
76263;DHT22;65080;50.908;6.916;2023-09-19T07:58:09;18.10;64.60
76263;DHT22;65080;50.908;6.916;2023-09-19T08:00:39;18.30;64.70
76263;DHT22;65080;50.908;6.916;2023-09-19T08:03:07;18.30;64.60
76263;DHT22;65080;50.908;6.916;2023-09-19T08:05:44;18.40;64.50
76263;DHT22;65080;50.908;6.916;2023-09-19T08:08:13;18.50;64.50
76263;DHT22;65080;50.908;6.916;2023-09-19T08:10:43;18.60;64.40
76263;DHT22;65080;50.908;6.916;2023-09-19T08:13:15;18.50;64.20
76263;DHT22;65080;50.908;6.916;2023-09-19T08:15:46;18.60;64.30
76263;DHT22;65080;50.908;6.916;2023-09-19T08:18:15;18.60;64.20
76263;DHT22;65080;50.908;6.916;2023-09-19T08:20:49;18.60;64.20
76263;DHT22;65080;50.908;6.916;2023-09-19T08:23:18;18.60;64.20
76263;DHT22;65080;50.908;6.916;2023-09-19T08:25:47;18.50;64.10
76263;DHT22;65080;50.908;6.916;2023-09-19T08:28:15;18.50;64.10
76263;DHT22;65080;50.908;6.916;2023-09-19T08:30:47;18.60;64.10
76263;DHT22;65080;50.908;6.916;2023-09-19T08:33:16;18.70;64.00
76263;DHT22;65080;50.908;6.916;2023-09-19T08:35:45;18.70;63.90
76263;DHT22;65080;50.908;6.916;2023-09-19T08:38:13;18.70;63.80
76263;DHT22;65080;50.908;6.916;2023-09-19T08:40:41;18.80;63.70
76263;DHT22;65080;50.908;6.916;2023-09-19T08:43:10;18.80;63.50
76263;DHT22;65080;50.908;6.916;2023-09-19T08:45:39;18.90;63.50
76263;DHT22;65080;50.908;6.916;2023-09-19T08:48:17;18.90;63.50
76263;DHT22;65080;50.908;6.916;2023-09-19T08:50:49;19.00;63.30
76263;DHT22;65080;50.908;6.916;2023-09-19T08:53:26;19.00;63.20
76263;DHT22;65080;50.908;6.916;2023-09-19T08:55:56;19.00;63.20
76263;DHT22;65080;50.908;6.916;2023-09-19T08:58:27;19.20;63.20
76263;DHT22;65080;50.908;6.916;2023-09-19T09:01:00;19.20;62.90
76263;DHT22;65080;50.908;6.916;2023-09-19T09:03:33;19.30;62.90
76263;DHT22;65080;50.908;6.916;2023-09-19T09:06:02;19.30;62.60
76263;DHT22;65080;50.908;6.916;2023-09-19T09:08:31;19.30;62.50
76263;DHT22;65080;50.908;6.916;2023-09-19T09:11:00;19.30;62.40
76263;DHT22;65080;50.908;6.916;2023-09-19T09:13:29;19.30;62.40
76263;DHT22;65080;50.908;6.916;2023-09-19T09:15:58;19.30;62.30
76263;DHT22;65080;50.908;6.916;2023-09-19T09:18:29;19.50;62.30
76263;DHT22;65080;50.908;6.916;2023-09-19T09:20:59;19.50;62.10
76263;DHT22;65080;50.908;6.916;2023-09-19T09:23:27;19.60;61.90
76263;DHT22;65080;50.908;6.916;2023-09-19T09:25:57;19.60;61.70
76263;DHT22;65080;50.908;6.916;2023-09-19T09:28:27;19.70;61.70
76263;DHT22;65080;50.908;6.916;2023-09-19T09:30:56;19.80;61.60
76263;DHT22;65080;50.908;6.916;2023-09-19T09:33:26;19.90;61.50
76263;DHT22;65080;50.908;6.916;2023-09-19T09:35:56;20.00;61.40
76263;DHT22;65080;50.908;6.916;2023-09-19T09:38:29;20.10;61.10
76263;DHT22;65080;50.908;6.916;2023-09-19T09:41:00;20.20;61.10
76263;DHT22;65080;50.908;6.916;2023-09-19T09:43:35;20.20;60.90
76263;DHT22;65080;50.908;6.916;2023-09-19T09:46:11;20.30;60.80
76263;DHT22;65080;50.908;6.916;2023-09-19T09:49:00;20.40;60.70
76263;DHT22;65080;50.908;6.916;2023-09-19T09:51:49;20.50;60.60
76263;DHT22;65080;50.908;6.916;2023-09-19T09:54:29;20.60;60.50
76263;DHT22;65080;50.908;6.916;2023-09-19T09:57:05;20.60;60.00
76263;DHT22;65080;50.908;6.916;2023-09-19T09:59:46;20.50;59.80
76263;DHT22;65080;50.908;6.916;2023-09-19T10:02:18;20.40;59.70
76263;DHT22;65080;50.908;6.916;2023-09-19T10:04:54;20.40;59.70
76263;DHT22;65080;50.908;6.916;2023-09-19T10:07:36;20.40;59.70
76263;DHT22;65080;50.908;6.916;2023-09-19T10:10:09;20.40;59.70
76263;DHT22;65080;50.908;6.916;2023-09-19T10:12:44;20.50;59.70
76263;DHT22;65080;50.908;6.916;2023-09-19T10:15:16;20.50;59.50
76263;DHT22;65080;50.908;6.916;2023-09-19T10:17:48;20.50;59.40
76263;DHT22;65080;50.908;6.916;2023-09-19T10:20:17;20.50;59.30
76263;DHT22;65080;50.908;6.916;2023-09-19T10:22:50;20.60;59.20
76263;DHT22;65080;50.908;6.916;2023-09-19T10:25:27;20.70;59.20
76263;DHT22;65080;50.908;6.916;2023-09-19T10:28:00;20.70;59.00
76263;DHT22;65080;50.908;6.916;2023-09-19T10:30:31;20.80;58.80
76263;DHT22;65080;50.908;6.916;2023-09-19T10:33:03;20.80;58.70
76263;DHT22;65080;50.908;6.916;2023-09-19T10:35:33;20.80;58.70
76263;DHT22;65080;50.908;6.916;2023-09-19T10:38:03;20.80;58.70
76263;DHT22;65080;50.908;6.916;2023-09-19T10:40:35;20.90;58.60
76263;DHT22;65080;50.908;6.916;2023-09-19T10:43:04;20.90;58.40
76263;DHT22;65080;50.908;6.916;2023-09-19T10:45:35;21.00;58.40
76263;DHT22;65080;50.908;6.916;2023-09-19T10:48:06;21.00;58.30
76263;DHT22;65080;50.908;6.916;2023-09-19T10:50:41;21.00;58.10
76263;DHT22;65080;50.908;6.916;2023-09-19T10:53:12;21.00;58.70
76263;DHT22;65080;50.908;6.916;2023-09-19T10:55:49;21.00;58.10
76263;DHT22;65080;50.908;6.916;2023-09-19T10:58:26;21.10;58.00
76263;DHT22;65080;50.908;6.916;2023-09-19T11:00:57;21.10;57.80
76263;DHT22;65080;50.908;6.916;2023-09-19T11:03:32;21.20;57.80
76263;DHT22;65080;50.908;6.916;2023-09-19T11:06:06;21.30;57.70
76263;DHT22;65080;50.908;6.916;2023-09-19T11:08:57;21.40;57.60
76263;DHT22;65080;50.908;6.916;2023-09-19T11:11:46;21.50;57.40
76263;DHT22;65080;50.908;6.916;2023-09-19T11:14:38;21.60;57.50
76263;DHT22;65080;50.908;6.916;2023-09-19T11:17:32;21.60;57.20
76263;DHT22;65080;50.908;6.916;2023-09-19T11:20:23;21.60;57.00
76263;DHT22;65080;50.908;6.916;2023-09-19T11:23:18;21.60;56.90
76263;DHT22;65080;50.908;6.916;2023-09-19T11:25:50;21.60;56.80
76263;DHT22;65080;50.908;6.916;2023-09-19T11:28:34;21.60;56.80
76263;DHT22;65080;50.908;6.916;2023-09-19T11:40:38;21.70;56.10
76263;DHT22;65080;50.908;6.916;2023-09-19T11:43:30;21.60;56.30
76263;DHT22;65080;50.908;6.916;2023-09-19T11:46:07;21.50;55.90
76263;DHT22;65080;50.908;6.916;2023-09-19T11:48:38;21.50;55.90
76263;DHT22;65080;50.908;6.916;2023-09-19T11:51:18;21.60;55.80
76263;DHT22;65080;50.908;6.916;2023-09-19T11:53:50;21.60;55.60
76263;DHT22;65080;50.908;6.916;2023-09-19T11:56:20;21.70;55.60
76263;DHT22;65080;50.908;6.916;2023-09-19T11:58:49;21.70;55.30
76263;DHT22;65080;50.908;6.916;2023-09-19T12:01:25;21.80;55.20
76263;DHT22;65080;50.908;6.916;2023-09-19T12:03:57;21.80;54.90
76263;DHT22;65080;50.908;6.916;2023-09-19T12:06:28;21.90;54.80
76263;DHT22;65080;50.908;6.916;2023-09-19T12:09:01;21.90;54.70
76263;DHT22;65080;50.908;6.916;2023-09-19T12:11:42;21.90;54.50
76263;DHT22;65080;50.908;6.916;2023-09-19T12:14:11;21.90;54.40
76263;DHT22;65080;50.908;6.916;2023-09-19T12:16:53;21.90;54.30
76263;DHT22;65080;50.908;6.916;2023-09-19T12:19:23;21.90;54.10
76263;DHT22;65080;50.908;6.916;2023-09-19T12:21:55;21.90;54.00
76263;DHT22;65080;50.908;6.916;2023-09-19T12:24:26;21.70;53.80
76263;DHT22;65080;50.908;6.916;2023-09-19T12:27:02;21.70;53.70
76263;DHT22;65080;50.908;6.916;2023-09-19T12:29:42;21.70;53.60
76263;DHT22;65080;50.908;6.916;2023-09-19T12:32:12;21.70;53.50
76263;DHT22;65080;50.908;6.916;2023-09-19T12:34:50;21.70;53.50
76263;DHT22;65080;50.908;6.916;2023-09-19T12:37:20;21.80;53.40
76263;DHT22;65080;50.908;6.916;2023-09-19T12:39:51;21.80;53.20
76263;DHT22;65080;50.908;6.916;2023-09-19T12:42:22;21.80;53.10
76263;DHT22;65080;50.908;6.916;2023-09-19T12:44:52;21.90;53.00
76263;DHT22;65080;50.908;6.916;2023-09-19T12:47:24;22.10;53.00
76263;DHT22;65080;50.908;6.916;2023-09-19T12:50:09;22.10;52.80
76263;DHT22;65080;50.908;6.916;2023-09-19T12:52:43;22.20;52.60
76263;DHT22;65080;50.908;6.916;2023-09-19T12:55:22;22.30;52.70
76263;DHT22;65080;50.908;6.916;2023-09-19T12:58:07;22.40;52.50
76263;DHT22;65080;50.908;6.916;2023-09-19T13:00:38;22.40;52.40
76263;DHT22;65080;50.908;6.916;2023-09-19T13:03:14;22.50;52.50
76263;DHT22;65080;50.908;6.916;2023-09-19T13:05:50;22.60;52.40
76263;DHT22;65080;50.908;6.916;2023-09-19T13:08:22;22.50;52.30
76263;DHT22;65080;50.908;6.916;2023-09-19T13:11:09;22.60;52.30
76263;DHT22;65080;50.908;6.916;2023-09-19T13:13:43;22.60;52.20
76263;DHT22;65080;50.908;6.916;2023-09-19T13:16:17;22.60;52.20
76263;DHT22;65080;50.908;6.916;2023-09-19T13:18:51;22.70;52.30
76263;DHT22;65080;50.908;6.916;2023-09-19T13:21:29;22.80;52.20
76263;DHT22;65080;50.908;6.916;2023-09-19T13:24:18;22.80;52.00
76263;DHT22;65080;50.908;6.916;2023-09-19T13:26:47;23.00;52.10
76263;DHT22;65080;50.908;6.916;2023-09-19T13:29:15;23.20;52.30
76263;DHT22;65080;50.908;6.916;2023-09-19T13:31:48;23.50;52.20
76263;DHT22;65080;50.908;6.916;2023-09-19T13:34:18;23.80;52.00
76263;DHT22;65080;50.908;6.916;2023-09-19T13:36:49;24.00;52.00
76263;DHT22;65080;50.908;6.916;2023-09-19T13:39:17;24.30;51.90
76263;DHT22;65080;50.908;6.916;2023-09-19T13:41:46;24.50;51.70
76263;DHT22;65080;50.908;6.916;2023-09-19T13:44:15;24.70;51.70
76263;DHT22;65080;50.908;6.916;2023-09-19T13:46:45;24.80;51.40
76263;DHT22;65080;50.908;6.916;2023-09-19T13:49:14;24.80;51.40
76263;DHT22;65080;50.908;6.916;2023-09-19T13:51:44;24.70;51.30
76263;DHT22;65080;50.908;6.916;2023-09-19T13:54:12;24.80;51.50
76263;DHT22;65080;50.908;6.916;2023-09-19T13:56:41;25.00;51.40
76263;DHT22;65080;50.908;6.916;2023-09-19T13:59:09;25.30;51.10
76263;DHT22;65080;50.908;6.916;2023-09-19T14:01:37;25.50;50.70
76263;DHT22;65080;50.908;6.916;2023-09-19T14:04:06;25.70;50.50
76263;DHT22;65080;50.908;6.916;2023-09-19T14:06:34;25.70;50.30
76263;DHT22;65080;50.908;6.916;2023-09-19T14:09:05;25.80;50.20
76263;DHT22;65080;50.908;6.916;2023-09-19T14:11:34;25.70;50.00
76263;DHT22;65080;50.908;6.916;2023-09-19T14:14:03;25.50;49.90
76263;DHT22;65080;50.908;6.916;2023-09-19T14:16:32;25.20;50.00
76263;DHT22;65080;50.908;6.916;2023-09-19T14:19:00;24.90;50.10
76263;DHT22;65080;50.908;6.916;2023-09-19T14:21:29;24.60;50.20
76263;DHT22;65080;50.908;6.916;2023-09-19T14:23:57;24.20;50.00
76263;DHT22;65080;50.908;6.916;2023-09-19T14:26:26;23.90;50.10
76263;DHT22;65080;50.908;6.916;2023-09-19T14:28:55;23.60;50.10
76263;DHT22;65080;50.908;6.916;2023-09-19T14:31:24;23.40;50.20
76263;DHT22;65080;50.908;6.916;2023-09-19T14:33:54;23.30;50.20
76263;DHT22;65080;50.908;6.916;2023-09-19T14:36:23;23.20;50.10
76263;DHT22;65080;50.908;6.916;2023-09-19T14:38:53;23.20;50.10
76263;DHT22;65080;50.908;6.916;2023-09-19T14:41:25;23.10;50.10
76263;DHT22;65080;50.908;6.916;2023-09-19T14:43:54;22.90;50.00
76263;DHT22;65080;50.908;6.916;2023-09-19T14:46:23;22.90;50.10
76263;DHT22;65080;50.908;6.916;2023-09-19T14:48:52;22.80;50.10
76263;DHT22;65080;50.908;6.916;2023-09-19T14:51:20;22.80;50.10
76263;DHT22;65080;50.908;6.916;2023-09-19T14:53:48;22.80;50.10
76263;DHT22;65080;50.908;6.916;2023-09-19T14:56:17;22.90;50.00
76263;DHT22;65080;50.908;6.916;2023-09-19T14:58:47;22.90;50.00
76263;DHT22;65080;50.908;6.916;2023-09-19T15:01:17;22.80;50.00
76263;DHT22;65080;50.908;6.916;2023-09-19T15:03:45;22.90;50.10
76263;DHT22;65080;50.908;6.916;2023-09-19T15:06:15;22.90;50.10
76263;DHT22;65080;50.908;6.916;2023-09-19T15:08:47;22.90;50.10
76263;DHT22;65080;50.908;6.916;2023-09-19T15:11:17;22.90;50.10
76263;DHT22;65080;50.908;6.916;2023-09-19T15:13:50;23.00;50.10
76263;DHT22;65080;50.908;6.916;2023-09-19T15:16:19;23.00;50.10
76263;DHT22;65080;50.908;6.916;2023-09-19T15:18:48;22.90;50.10
76263;DHT22;65080;50.908;6.916;2023-09-19T15:21:16;22.70;50.10
76263;DHT22;65080;50.908;6.916;2023-09-19T15:23:45;22.50;50.10
76263;DHT22;65080;50.908;6.916;2023-09-19T15:26:14;22.40;50.20
76263;DHT22;65080;50.908;6.916;2023-09-19T15:28:47;22.30;50.20
76263;DHT22;65080;50.908;6.916;2023-09-19T15:31:17;22.20;50.20
76263;DHT22;65080;50.908;6.916;2023-09-19T15:33:47;22.10;50.20
76263;DHT22;65080;50.908;6.916;2023-09-19T15:36:16;22.00;50.10
76263;DHT22;65080;50.908;6.916;2023-09-19T15:38:57;22.00;50.20
76263;DHT22;65080;50.908;6.916;2023-09-19T15:41:28;22.10;50.20
76263;DHT22;65080;50.908;6.916;2023-09-19T15:43:58;22.00;50.20
76263;DHT22;65080;50.908;6.916;2023-09-19T15:46:30;22.00;50.20
76263;DHT22;65080;50.908;6.916;2023-09-19T15:49:00;22.00;50.20
76263;DHT22;65080;50.908;6.916;2023-09-19T15:51:28;21.90;50.10
76263;DHT22;65080;50.908;6.916;2023-09-19T15:53:57;22.00;50.20
76263;DHT22;65080;50.908;6.916;2023-09-19T15:56:27;22.00;50.30
76263;DHT22;65080;50.908;6.916;2023-09-19T15:58:55;21.90;50.30
76263;DHT22;65080;50.908;6.916;2023-09-19T16:01:24;21.90;50.30
76263;DHT22;65080;50.908;6.916;2023-09-19T16:03:54;22.00;50.30
76263;DHT22;65080;50.908;6.916;2023-09-19T16:06:25;21.90;50.30